sensor_id;sensor_type;location;lat;lon;timestamp;pressure;altitude;pressure_sealevel;temperature;humidity
35848;BME280;22332;51.954;20.118;2023-01-28T00:01:39;100866.04;;;1.65;79.36
35848;BME280;22332;51.954;20.118;2023-01-28T00:04:45;100864.01;;;1.71;79.48
35848;BME280;22332;51.954;20.118;2023-01-28T00:07:51;100865.06;;;1.70;79.54
35848;BME280;22332;51.954;20.118;2023-01-28T00:11:00;100865.36;;;1.71;79.50
35848;BME280;22332;51.954;20.118;2023-01-28T00:14:06;100873.09;;;1.71;79.62
35848;BME280;22332;51.954;20.118;2023-01-28T00:17:12;100874.98;;;1.68;79.57
35848;BME280;22332;51.954;20.118;2023-01-28T00:20:18;100878.14;;;1.65;79.64
35848;BME280;22332;51.954;20.118;2023-01-28T00:23:23;100876.67;;;1.63;79.48
35848;BME280;22332;51.954;20.118;2023-01-28T00:26:30;100873.39;;;1.62;79.52
35848;BME280;22332;51.954;20.118;2023-01-28T00:29:35;100871.88;;;1.58;79.42
35848;BME280;22332;51.954;20.118;2023-01-28T00:32:43;100874.14;;;1.58;79.64
35848;BME280;22332;51.954;20.118;2023-01-28T00:35:57;100872.33;;;1.63;79.66
35848;BME280;22332;51.954;20.118;2023-01-28T00:39:04;100872.41;;;1.68;79.68
35848;BME280;22332;51.954;20.118;2023-01-28T00:42:10;100869.61;;;1.71;79.54
35848;BME280;22332;51.954;20.118;2023-01-28T00:45:16;100868.36;;;1.71;79.44
35848;BME280;22332;51.954;20.118;2023-01-28T00:48:21;100871.63;;;1.69;79.48
35848;BME280;22332;51.954;20.118;2023-01-28T00:51:27;100877.14;;;1.65;79.31
35848;BME280;22332;51.954;20.118;2023-01-28T00:54:32;100876.85;;;1.60;79.29
35848;BME280;22332;51.954;20.118;2023-01-28T00:57:39;100876.27;;;1.57;79.51
35848;BME280;22332;51.954;20.118;2023-01-28T01:00:45;100880.44;;;1.55;79.70
35848;BME280;22332;51.954;20.118;2023-01-28T01:03:51;100880.98;;;1.47;79.52
35848;BME280;22332;51.954;20.118;2023-01-28T01:07:02;100880.14;;;1.44;79.76
35848;BME280;22332;51.954;20.118;2023-01-28T01:10:11;100874.71;;;1.47;79.67
35848;BME280;22332;51.954;20.118;2023-01-28T01:13:16;100870.31;;;1.51;79.66
35848;BME280;22332;51.954;20.118;2023-01-28T01:16:23;100874.94;;;1.56;79.71
35848;BME280;22332;51.954;20.118;2023-01-28T01:19:29;100874.80;;;1.56;79.78
35848;BME280;22332;51.954;20.118;2023-01-28T01:22:36;100874.16;;;1.57;79.76
35848;BME280;22332;51.954;20.118;2023-01-28T01:25:41;100874.31;;;1.58;79.57
35848;BME280;22332;51.954;20.118;2023-01-28T01:28:47;100873.23;;;1.59;79.82
35848;BME280;22332;51.954;20.118;2023-01-28T01:31:52;100879.56;;;1.54;79.48
35848;BME280;22332;51.954;20.118;2023-01-28T01:34:58;100875.45;;;1.53;79.75
35848;BME280;22332;51.954;20.118;2023-01-28T01:38:04;100878.27;;;1.56;79.84
35848;BME280;22332;51.954;20.118;2023-01-28T01:41:12;100877.36;;;1.60;79.78
35848;BME280;22332;51.954;20.118;2023-01-28T01:44:58;100878.20;;;1.68;79.85
35848;BME280;22332;51.954;20.118;2023-01-28T01:48:11;100875.73;;;1.74;79.57
35848;BME280;22332;51.954;20.118;2023-01-28T01:51:23;100874.16;;;1.74;79.61
35848;BME280;22332;51.954;20.118;2023-01-28T01:54:31;100876.42;;;1.74;79.55
35848;BME280;22332;51.954;20.118;2023-01-28T01:57:38;100876.95;;;1.71;79.43
35848;BME280;22332;51.954;20.118;2023-01-28T02:00:44;100872.52;;;1.69;79.59
35848;BME280;22332;51.954;20.118;2023-01-28T02:03:56;100877.14;;;1.71;79.65
35848;BME280;22332;51.954;20.118;2023-01-28T02:07:03;100877.33;;;1.71;79.54
35848;BME280;22332;51.954;20.118;2023-01-28T02:10:12;100879.18;;;1.66;79.54
35848;BME280;22332;51.954;20.118;2023-01-28T02:13:23;100880.55;;;1.63;79.55
35848;BME280;22332;51.954;20.118;2023-01-28T02:16:31;100879.77;;;1.65;79.67
35848;BME280;22332;51.954;20.118;2023-01-28T02:19:41;100880.92;;;1.69;79.60
35848;BME280;22332;51.954;20.118;2023-01-28T02:23:14;100886.70;;;1.73;79.63
35848;BME280;22332;51.954;20.118;2023-01-28T02:26:41;100890.19;;;1.73;79.70
35848;BME280;22332;51.954;20.118;2023-01-28T02:30:00;100885.22;;;1.78;79.69
35848;BME280;22332;51.954;20.118;2023-01-28T02:33:12;100882.45;;;1.77;79.46
35848;BME280;22332;51.954;20.118;2023-01-28T02:36:26;100875.06;;;1.74;79.66
35848;BME280;22332;51.954;20.118;2023-01-28T02:39:37;100874.86;;;1.71;79.62
35848;BME280;22332;51.954;20.118;2023-01-28T02:42:45;100874.06;;;1.69;79.56
35848;BME280;22332;51.954;20.118;2023-01-28T02:45:51;100877.61;;;1.66;79.60
35848;BME280;22332;51.954;20.118;2023-01-28T02:49:17;100878.77;;;1.50;79.60
35848;BME280;22332;51.954;20.118;2023-01-28T02:52:31;100885.42;;;1.43;79.90
35848;BME280;22332;51.954;20.118;2023-01-28T02:56:04;100884.80;;;1.45;79.89
35848;BME280;22332;51.954;20.118;2023-01-28T02:59:15;100888.55;;;1.47;80.09
35848;BME280;22332;51.954;20.118;2023-01-28T03:02:45;100885.05;;;1.54;80.10
35848;BME280;22332;51.954;20.118;2023-01-28T03:06:00;100886.27;;;1.61;80.00
35848;BME280;22332;51.954;20.118;2023-01-28T03:09:11;100891.70;;;1.58;80.02
35848;BME280;22332;51.954;20.118;2023-01-28T03:12:32;100888.33;;;1.51;80.16
35848;BME280;22332;51.954;20.118;2023-01-28T03:15:57;100894.22;;;1.46;80.16
35848;BME280;22332;51.954;20.118;2023-01-28T03:19:22;100891.89;;;1.53;80.23
35848;BME280;22332;51.954;20.118;2023-01-28T03:22:46;100895.69;;;1.59;80.14
35848;BME280;22332;51.954;20.118;2023-01-28T03:26:15;100893.91;;;1.59;80.25
35848;BME280;22332;51.954;20.118;2023-01-28T03:29:42;100891.38;;;1.53;80.30
35848;BME280;22332;51.954;20.118;2023-01-28T03:33:09;100890.98;;;1.54;80.40
35848;BME280;22332;51.954;20.118;2023-01-28T03:36:33;100882.33;;;1.59;80.46
35848;BME280;22332;51.954;20.118;2023-01-28T03:40:21;100884.50;;;1.61;80.63
35848;BME280;22332;51.954;20.118;2023-01-28T03:43:27;100884.56;;;1.64;80.54
35848;BME280;22332;51.954;20.118;2023-01-28T03:46:33;100892.79;;;1.60;80.64
35848;BME280;22332;51.954;20.118;2023-01-28T03:49:43;100890.05;;;1.59;80.76
35848;BME280;22332;51.954;20.118;2023-01-28T03:52:49;100891.31;;;1.55;81.08
35848;BME280;22332;51.954;20.118;2023-01-28T03:56:06;100894.88;;;1.50;80.90
35848;BME280;22332;51.954;20.118;2023-01-28T03:59:12;100896.46;;;1.47;81.27
35848;BME280;22332;51.954;20.118;2023-01-28T04:02:19;100899.27;;;1.47;81.22
35848;BME280;22332;51.954;20.118;2023-01-28T04:05:27;100899.83;;;1.49;81.63
35848;BME280;22332;51.954;20.118;2023-01-28T04:08:34;100895.11;;;1.49;81.56
35848;BME280;22332;51.954;20.118;2023-01-28T04:12:04;100890.62;;;1.51;81.59
35848;BME280;22332;51.954;20.118;2023-01-28T04:15:19;100889.27;;;1.50;81.60
35848;BME280;22332;51.954;20.118;2023-01-28T04:18:26;100887.30;;;1.51;81.55
35848;BME280;22332;51.954;20.118;2023-01-28T04:21:34;100887.46;;;1.54;81.47
35848;BME280;22332;51.954;20.118;2023-01-28T04:24:41;100887.65;;;1.54;81.47
35848;BME280;22332;51.954;20.118;2023-01-28T04:27:48;100882.97;;;1.53;81.64
35848;BME280;22332;51.954;20.118;2023-01-28T04:31:03;100884.02;;;1.60;81.55
35848;BME280;22332;51.954;20.118;2023-01-28T04:34:16;100884.58;;;1.63;81.62
35848;BME280;22332;51.954;20.118;2023-01-28T04:37:31;100886.25;;;1.65;81.57
35848;BME280;22332;51.954;20.118;2023-01-28T04:40:51;100887.84;;;1.68;81.66
35848;BME280;22332;51.954;20.118;2023-01-28T04:44:03;100890.44;;;1.72;81.47
35848;BME280;22332;51.954;20.118;2023-01-28T04:47:18;100892.23;;;1.71;81.76
35848;BME280;22332;51.954;20.118;2023-01-28T04:50:48;100896.61;;;1.57;82.01
35848;BME280;22332;51.954;20.118;2023-01-28T04:54:07;100895.44;;;1.46;82.11
35848;BME280;22332;51.954;20.118;2023-01-28T04:57:14;100899.13;;;1.43;82.05
35848;BME280;22332;51.954;20.118;2023-01-28T05:00:21;100896.17;;;1.39;82.20
35848;BME280;22332;51.954;20.118;2023-01-28T05:03:29;100899.21;;;1.34;82.07
35848;BME280;22332;51.954;20.118;2023-01-28T05:06:35;100904.50;;;1.33;82.51
35848;BME280;22332;51.954;20.118;2023-01-28T05:10:05;100897.61;;;1.31;82.47
35848;BME280;22332;51.954;20.118;2023-01-28T05:13:11;100901.48;;;1.34;82.63
35848;BME280;22332;51.954;20.118;2023-01-28T05:16:16;100906.55;;;1.31;82.59
35848;BME280;22332;51.954;20.118;2023-01-28T05:19:22;100911.88;;;1.33;82.59
35848;BME280;22332;51.954;20.118;2023-01-28T05:22:28;100918.45;;;1.34;82.52
35848;BME280;22332;51.954;20.118;2023-01-28T05:25:52;100920.13;;;1.29;82.55
35848;BME280;22332;51.954;20.118;2023-01-28T05:28:58;100918.31;;;1.27;82.97
35848;BME280;22332;51.954;20.118;2023-01-28T05:32:04;100921.88;;;1.23;83.07
35848;BME280;22332;51.954;20.118;2023-01-28T05:35:10;100925.69;;;1.12;83.00
35848;BME280;22332;51.954;20.118;2023-01-28T05:38:16;100924.49;;;1.12;83.37
35848;BME280;22332;51.954;20.118;2023-01-28T05:41:22;100924.77;;;1.17;83.10
35848;BME280;22332;51.954;20.118;2023-01-28T05:44:33;100920.36;;;1.28;83.09
35848;BME280;22332;51.954;20.118;2023-01-28T05:47:58;100921.05;;;1.39;82.76
35848;BME280;22332;51.954;20.118;2023-01-28T05:51:22;100920.16;;;1.39;83.05
35848;BME280;22332;51.954;20.118;2023-01-28T05:54:32;100920.36;;;1.39;82.82
35848;BME280;22332;51.954;20.118;2023-01-28T05:57:38;100921.57;;;1.39;82.90
35848;BME280;22332;51.954;20.118;2023-01-28T06:00:46;100925.88;;;1.33;82.89
35848;BME280;22332;51.954;20.118;2023-01-28T06:03:52;100932.92;;;1.29;82.83
35848;BME280;22332;51.954;20.118;2023-01-28T06:06:57;100932.33;;;1.24;83.26
35848;BME280;22332;51.954;20.118;2023-01-28T06:10:05;100934.23;;;1.21;83.41
35848;BME280;22332;51.954;20.118;2023-01-28T06:13:11;100932.33;;;1.20;83.55
35848;BME280;22332;51.954;20.118;2023-01-28T06:16:34;100938.74;;;1.22;83.33
35848;BME280;22332;51.954;20.118;2023-01-28T06:19:58;100933.80;;;1.26;83.58
35848;BME280;22332;51.954;20.118;2023-01-28T06:23:06;100942.59;;;1.26;83.36
35848;BME280;22332;51.954;20.118;2023-01-28T06:26:11;100944.34;;;1.29;83.61
35848;BME280;22332;51.954;20.118;2023-01-28T06:29:22;100947.10;;;1.23;84.08
35848;BME280;22332;51.954;20.118;2023-01-28T06:32:30;100953.06;;;1.16;83.90
35848;BME280;22332;51.954;20.118;2023-01-28T06:35:37;100952.58;;;1.11;83.95
35848;BME280;22332;51.954;20.118;2023-01-28T06:38:42;100951.66;;;1.05;83.91
35848;BME280;22332;51.954;20.118;2023-01-28T06:41:48;100953.48;;;1.04;84.01
35848;BME280;22332;51.954;20.118;2023-01-28T06:44:58;100962.08;;;1.07;83.86
35848;BME280;22332;51.954;20.118;2023-01-28T06:48:05;100964.41;;;1.12;84.04
35848;BME280;22332;51.954;20.118;2023-01-28T06:51:10;100965.70;;;1.18;83.89
35848;BME280;22332;51.954;20.118;2023-01-28T06:54:16;100960.60;;;1.22;83.87
35848;BME280;22332;51.954;20.118;2023-01-28T06:57:22;100969.21;;;1.29;84.07
35848;BME280;22332;51.954;20.118;2023-01-28T07:00:27;100970.39;;;1.27;84.13
35848;BME280;22332;51.954;20.118;2023-01-28T07:03:33;100974.92;;;1.24;84.21
35848;BME280;22332;51.954;20.118;2023-01-28T07:06:40;100974.53;;;1.17;84.54
35848;BME280;22332;51.954;20.118;2023-01-28T07:09:45;100978.36;;;1.07;84.56
35848;BME280;22332;51.954;20.118;2023-01-28T07:12:51;100983.05;;;1.08;84.51
35848;BME280;22332;51.954;20.118;2023-01-28T07:15:58;100983.86;;;1.09;84.76
35848;BME280;22332;51.954;20.118;2023-01-28T07:19:05;100984.83;;;1.07;84.79
35848;BME280;22332;51.954;20.118;2023-01-28T07:22:11;100986.69;;;1.16;84.52
35848;BME280;22332;51.954;20.118;2023-01-28T07:25:26;100989.63;;;1.21;84.19
35848;BME280;22332;51.954;20.118;2023-01-28T07:28:36;100991.39;;;1.20;84.96
35848;BME280;22332;51.954;20.118;2023-01-28T07:31:43;100994.20;;;1.16;84.60
35848;BME280;22332;51.954;20.118;2023-01-28T07:34:51;100995.63;;;1.16;84.38
35848;BME280;22332;51.954;20.118;2023-01-28T07:37:59;100997.33;;;1.21;84.28
35848;BME280;22332;51.954;20.118;2023-01-28T07:41:05;100999.86;;;1.19;84.55
35848;BME280;22332;51.954;20.118;2023-01-28T07:44:11;101000.49;;;1.21;84.51
35848;BME280;22332;51.954;20.118;2023-01-28T07:47:16;101007.69;;;1.27;84.55
35848;BME280;22332;51.954;20.118;2023-01-28T07:50:22;101004.34;;;1.28;84.49
35848;BME280;22332;51.954;20.118;2023-01-28T07:53:28;101003.36;;;1.26;84.42
35848;BME280;22332;51.954;20.118;2023-01-28T07:56:34;100999.69;;;1.26;84.36
35848;BME280;22332;51.954;20.118;2023-01-28T07:59:39;100998.73;;;1.28;84.47
35848;BME280;22332;51.954;20.118;2023-01-28T08:02:46;101002.95;;;1.35;84.41
35848;BME280;22332;51.954;20.118;2023-01-28T08:05:53;101002.89;;;1.39;84.48
35848;BME280;22332;51.954;20.118;2023-01-28T08:08:59;101003.05;;;1.36;84.50
35848;BME280;22332;51.954;20.118;2023-01-28T08:12:06;101004.71;;;1.38;84.44
35848;BME280;22332;51.954;20.118;2023-01-28T08:15:11;101000.16;;;1.42;84.55
35848;BME280;22332;51.954;20.118;2023-01-28T08:18:17;100998.72;;;1.46;84.48
35848;BME280;22332;51.954;20.118;2023-01-28T08:21:24;100998.92;;;1.49;84.50
35848;BME280;22332;51.954;20.118;2023-01-28T08:24:30;101000.66;;;1.49;84.34
35848;BME280;22332;51.954;20.118;2023-01-28T08:27:36;101000.61;;;1.53;84.44
35848;BME280;22332;51.954;20.118;2023-01-28T08:30:42;100994.88;;;1.60;84.28
35848;BME280;22332;51.954;20.118;2023-01-28T08:33:48;100998.64;;;1.61;84.08
35848;BME280;22332;51.954;20.118;2023-01-28T08:36:53;100993.64;;;1.64;84.19
35848;BME280;22332;51.954;20.118;2023-01-28T08:39:59;100989.48;;;1.66;84.16
35848;BME280;22332;51.954;20.118;2023-01-28T08:43:04;100991.48;;;1.68;84.05
35848;BME280;22332;51.954;20.118;2023-01-28T08:46:10;100996.31;;;1.69;83.93
35848;BME280;22332;51.954;20.118;2023-01-28T08:49:17;100997.15;;;1.67;84.02
35848;BME280;22332;51.954;20.118;2023-01-28T08:52:22;100996.64;;;1.63;83.85
35848;BME280;22332;51.954;20.118;2023-01-28T08:55:28;101001.77;;;1.59;84.00
35848;BME280;22332;51.954;20.118;2023-01-28T08:58:35;101007.56;;;1.58;84.28
35848;BME280;22332;51.954;20.118;2023-01-28T09:01:40;101011.05;;;1.59;84.11
35848;BME280;22332;51.954;20.118;2023-01-28T09:04:46;101014.25;;;1.58;84.27
35848;BME280;22332;51.954;20.118;2023-01-28T09:07:53;101018.25;;;1.62;84.12
35848;BME280;22332;51.954;20.118;2023-01-28T09:11:00;101023.57;;;1.61;84.21
35848;BME280;22332;51.954;20.118;2023-01-28T09:14:05;101025.08;;;1.66;84.27
35848;BME280;22332;51.954;20.118;2023-01-28T09:17:11;101023.70;;;1.72;83.83
35848;BME280;22332;51.954;20.118;2023-01-28T09:20:17;101030.16;;;1.69;83.91
35848;BME280;22332;51.954;20.118;2023-01-28T09:23:23;101027.42;;;1.65;84.16
35848;BME280;22332;51.954;20.118;2023-01-28T09:26:28;101030.58;;;1.65;83.96
35848;BME280;22332;51.954;20.118;2023-01-28T09:29:37;101032.94;;;1.66;84.01
35848;BME280;22332;51.954;20.118;2023-01-28T09:32:43;101031.73;;;1.70;83.95
35848;BME280;22332;51.954;20.118;2023-01-28T09:35:48;101031.34;;;1.74;83.85
35848;BME280;22332;51.954;20.118;2023-01-28T09:38:54;101025.02;;;1.77;83.82
35848;BME280;22332;51.954;20.118;2023-01-28T09:42:11;101029.91;;;1.81;83.87
35848;BME280;22332;51.954;20.118;2023-01-28T09:45:24;101027.49;;;1.81;83.74
35848;BME280;22332;51.954;20.118;2023-01-28T09:48:35;101030.80;;;1.78;83.72
35848;BME280;22332;51.954;20.118;2023-01-28T09:51:46;101032.64;;;1.76;83.74
35848;BME280;22332;51.954;20.118;2023-01-28T09:54:55;101025.58;;;1.80;83.94
35848;BME280;22332;51.954;20.118;2023-01-28T09:58:06;101023.88;;;1.79;83.69
35848;BME280;22332;51.954;20.118;2023-01-28T10:01:30;101022.48;;;1.80;83.72
35848;BME280;22332;51.954;20.118;2023-01-28T10:04:46;101024.27;;;1.78;83.49
35848;BME280;22332;51.954;20.118;2023-01-28T10:07:59;101025.45;;;1.76;83.46
35848;BME280;22332;51.954;20.118;2023-01-28T10:11:15;101022.40;;;1.77;83.73
35848;BME280;22332;51.954;20.118;2023-01-28T10:14:30;101025.45;;;1.80;83.67
35848;BME280;22332;51.954;20.118;2023-01-28T10:17:41;101022.41;;;1.81;83.58
35848;BME280;22332;51.954;20.118;2023-01-28T10:20:50;101019.58;;;1.78;83.73
35848;BME280;22332;51.954;20.118;2023-01-28T10:24:00;101017.31;;;1.81;83.72
35848;BME280;22332;51.954;20.118;2023-01-28T10:27:14;101013.55;;;1.79;83.62
35848;BME280;22332;51.954;20.118;2023-01-28T10:30:23;101011.93;;;1.80;83.62
35848;BME280;22332;51.954;20.118;2023-01-28T10:33:32;101011.73;;;1.80;83.34
35848;BME280;22332;51.954;20.118;2023-01-28T10:36:41;101007.09;;;1.78;83.47
35848;BME280;22332;51.954;20.118;2023-01-28T10:39:47;101005.70;;;1.82;83.47
35848;BME280;22332;51.954;20.118;2023-01-28T10:42:55;101002.14;;;1.86;83.78
35848;BME280;22332;51.954;20.118;2023-01-28T10:46:04;100999.89;;;1.82;83.49
35848;BME280;22332;51.954;20.118;2023-01-28T10:49:15;101004.65;;;1.71;83.48
35848;BME280;22332;51.954;20.118;2023-01-28T10:52:23;101003.77;;;1.61;83.59
35848;BME280;22332;51.954;20.118;2023-01-28T10:55:33;101002.32;;;1.58;84.01
35848;BME280;22332;51.954;20.118;2023-01-28T10:58:49;101003.80;;;1.60;83.95
35848;BME280;22332;51.954;20.118;2023-01-28T11:02:00;101000.23;;;1.62;84.03
35848;BME280;22332;51.954;20.118;2023-01-28T11:05:15;100998.05;;;1.70;84.00
35848;BME280;22332;51.954;20.118;2023-01-28T11:08:22;100996.48;;;1.76;83.78
35848;BME280;22332;51.954;20.118;2023-01-28T11:11:29;100993.70;;;1.76;83.54
35848;BME280;22332;51.954;20.118;2023-01-28T11:14:36;100990.48;;;1.81;83.73
35848;BME280;22332;51.954;20.118;2023-01-28T11:17:50;100994.27;;;1.82;83.52
35848;BME280;22332;51.954;20.118;2023-01-28T11:21:01;100989.41;;;1.78;83.57
35848;BME280;22332;51.954;20.118;2023-01-28T11:24:15;100989.80;;;1.73;83.65
35848;BME280;22332;51.954;20.118;2023-01-28T11:27:28;100986.55;;;1.72;83.77
35848;BME280;22332;51.954;20.118;2023-01-28T11:31:03;100988.27;;;1.73;83.65
35848;BME280;22332;51.954;20.118;2023-01-28T11:39:20;100977.70;;;1.80;83.22
35848;BME280;22332;51.954;20.118;2023-01-28T11:42:27;100979.44;;;1.80;82.90
35848;BME280;22332;51.954;20.118;2023-01-28T11:45:41;100972.52;;;1.75;82.97
35848;BME280;22332;51.954;20.118;2023-01-28T11:48:54;100970.15;;;1.77;83.12
35848;BME280;22332;51.954;20.118;2023-01-28T11:52:08;100972.66;;;1.83;83.27
35848;BME280;22332;51.954;20.118;2023-01-28T11:55:25;100972.60;;;1.87;82.93
35848;BME280;22332;51.954;20.118;2023-01-28T11:58:44;100974.13;;;1.85;83.03
35848;BME280;22332;51.954;20.118;2023-01-28T12:01:58;100975.39;;;1.77;82.77
35848;BME280;22332;51.954;20.118;2023-01-28T12:05:21;100968.48;;;1.72;82.70
35848;BME280;22332;51.954;20.118;2023-01-28T12:08:39;100972.27;;;1.76;82.97
35848;BME280;22332;51.954;20.118;2023-01-28T12:11:57;100975.04;;;1.84;82.79
35848;BME280;22332;51.954;20.118;2023-01-28T12:19:06;100971.07;;;1.96;82.76
35848;BME280;22332;51.954;20.118;2023-01-28T12:22:40;100965.26;;;1.97;82.91
35848;BME280;22332;51.954;20.118;2023-01-28T12:26:01;100967.14;;;2.01;82.80
35848;BME280;22332;51.954;20.118;2023-01-28T12:29:20;100965.69;;;1.99;82.76
35848;BME280;22332;51.954;20.118;2023-01-28T12:32:40;100964.42;;;1.89;82.60
35848;BME280;22332;51.954;20.118;2023-01-28T12:35:58;100967.53;;;1.87;82.60
35848;BME280;22332;51.954;20.118;2023-01-28T12:39:19;100961.69;;;1.78;82.50
35848;BME280;22332;51.954;20.118;2023-01-28T12:42:31;100954.58;;;1.80;82.53
35848;BME280;22332;51.954;20.118;2023-01-28T12:45:42;100960.14;;;1.77;82.41
35848;BME280;22332;51.954;20.118;2023-01-28T12:48:52;100956.76;;;1.71;82.52
35848;BME280;22332;51.954;20.118;2023-01-28T12:52:03;100963.50;;;1.66;82.45
35848;BME280;22332;51.954;20.118;2023-01-28T12:55:16;100970.04;;;1.65;82.71
35848;BME280;22332;51.954;20.118;2023-01-28T12:58:30;100972.58;;;1.60;82.49
35848;BME280;22332;51.954;20.118;2023-01-28T13:01:41;100977.41;;;1.48;82.63
35848;BME280;22332;51.954;20.118;2023-01-28T13:04:53;100979.67;;;1.41;82.90
35848;BME280;22332;51.954;20.118;2023-01-28T13:08:03;100977.16;;;1.46;82.96
35848;BME280;22332;51.954;20.118;2023-01-28T13:11:15;100975.63;;;1.52;82.69
35848;BME280;22332;51.954;20.118;2023-01-28T13:14:29;100978.39;;;1.53;82.60
35848;BME280;22332;51.954;20.118;2023-01-28T13:17:35;100976.52;;;1.58;82.81
35848;BME280;22332;51.954;20.118;2023-01-28T13:20:48;100978.91;;;1.60;82.39
35848;BME280;22332;51.954;20.118;2023-01-28T13:24:05;100973.31;;;1.49;82.44
35848;BME280;22332;51.954;20.118;2023-01-28T13:27:23;100973.98;;;1.43;82.53
35848;BME280;22332;51.954;20.118;2023-01-28T13:30:31;100979.80;;;1.38;82.73
35848;BME280;22332;51.954;20.118;2023-01-28T13:33:38;100981.30;;;1.36;82.94
35848;BME280;22332;51.954;20.118;2023-01-28T13:36:46;100987.96;;;1.33;82.87
35848;BME280;22332;51.954;20.118;2023-01-28T13:39:55;100984.17;;;1.28;82.86
35848;BME280;22332;51.954;20.118;2023-01-28T13:46:29;100986.11;;;1.24;82.84
35848;BME280;22332;51.954;20.118;2023-01-28T13:49:40;100984.75;;;1.13;82.87
35848;BME280;22332;51.954;20.118;2023-01-28T13:52:52;100984.63;;;1.04;82.96
35848;BME280;22332;51.954;20.118;2023-01-28T13:56:00;100992.08;;;1.02;83.15
35848;BME280;22332;51.954;20.118;2023-01-28T13:59:28;100986.05;;;1.00;83.38
35848;BME280;22332;51.954;20.118;2023-01-28T14:02:53;100985.71;;;1.00;83.63
35848;BME280;22332;51.954;20.118;2023-01-28T14:10:09;100977.06;;;1.01;83.54
35848;BME280;22332;51.954;20.118;2023-01-28T14:13:30;100980.36;;;1.12;83.50
35848;BME280;22332;51.954;20.118;2023-01-28T14:16:41;100986.34;;;1.20;83.21
35848;BME280;22332;51.954;20.118;2023-01-28T14:19:57;100987.20;;;1.13;83.27
35848;BME280;22332;51.954;20.118;2023-01-28T14:23:05;100987.56;;;1.09;83.31
35848;BME280;22332;51.954;20.118;2023-01-28T14:26:27;100993.38;;;1.08;83.35
35848;BME280;22332;51.954;20.118;2023-01-28T14:29:45;100991.66;;;1.07;83.44
35848;BME280;22332;51.954;20.118;2023-01-28T14:32:52;100990.14;;;1.10;83.52
35848;BME280;22332;51.954;20.118;2023-01-28T14:35:58;100989.11;;;1.13;83.40
35848;BME280;22332;51.954;20.118;2023-01-28T14:39:04;100992.21;;;1.10;83.11
35848;BME280;22332;51.954;20.118;2023-01-28T14:42:16;100983.95;;;1.11;83.28
35848;BME280;22332;51.954;20.118;2023-01-28T14:45:28;100979.68;;;1.15;83.27
35848;BME280;22332;51.954;20.118;2023-01-28T14:48:40;100978.86;;;1.14;83.11
35848;BME280;22332;51.954;20.118;2023-01-28T14:52:15;100978.96;;;1.09;83.23
35848;BME280;22332;51.954;20.118;2023-01-28T14:55:34;100983.31;;;1.06;83.26
35848;BME280;22332;51.954;20.118;2023-01-28T14:58:48;100980.52;;;1.06;83.39
35848;BME280;22332;51.954;20.118;2023-01-28T15:01:57;100982.81;;;1.13;83.28
35848;BME280;22332;51.954;20.118;2023-01-28T15:05:14;100984.61;;;1.15;83.11
35848;BME280;22332;51.954;20.118;2023-01-28T15:08:23;100990.77;;;1.15;83.08
35848;BME280;22332;51.954;20.118;2023-01-28T15:11:29;100996.02;;;1.15;82.98
35848;BME280;22332;51.954;20.118;2023-01-28T15:14:35;100997.67;;;1.06;82.72
35848;BME280;22332;51.954;20.118;2023-01-28T15:17:41;101001.35;;;0.95;82.90
35848;BME280;22332;51.954;20.118;2023-01-28T15:20:48;101009.59;;;0.88;82.69
35848;BME280;22332;51.954;20.118;2023-01-28T15:23:57;101006.94;;;0.81;82.82
35848;BME280;22332;51.954;20.118;2023-01-28T15:27:03;101010.48;;;0.80;82.40
35848;BME280;22332;51.954;20.118;2023-01-28T15:30:24;101009.98;;;0.83;81.60
35848;BME280;22332;51.954;20.118;2023-01-28T15:33:30;101016.67;;;0.83;80.53
35848;BME280;22332;51.954;20.118;2023-01-28T15:36:36;101018.93;;;0.79;80.45
35848;BME280;22332;51.954;20.118;2023-01-28T15:39:42;101017.11;;;0.81;80.74
35848;BME280;22332;51.954;20.118;2023-01-28T15:42:48;101018.84;;;0.77;80.44
35848;BME280;22332;51.954;20.118;2023-01-28T15:45:55;101023.58;;;0.73;80.84
35848;BME280;22332;51.954;20.118;2023-01-28T15:49:03;101025.30;;;0.70;80.48
35848;BME280;22332;51.954;20.118;2023-01-28T15:52:09;101028.23;;;0.63;80.76
35848;BME280;22332;51.954;20.118;2023-01-28T15:55:34;101027.91;;;0.59;81.35
35848;BME280;22332;51.954;20.118;2023-01-28T15:58:40;101023.66;;;0.60;81.49
35848;BME280;22332;51.954;20.118;2023-01-28T16:01:46;101023.02;;;0.62;80.14
35848;BME280;22332;51.954;20.118;2023-01-28T16:05:00;101022.44;;;0.71;80.40
35848;BME280;22332;51.954;20.118;2023-01-28T16:08:10;101020.72;;;0.74;79.04
35848;BME280;22332;51.954;20.118;2023-01-28T16:11:24;101024.27;;;0.73;79.06
35848;BME280;22332;51.954;20.118;2023-01-28T16:14:33;101025.30;;;0.66;78.82
35848;BME280;22332;51.954;20.118;2023-01-28T16:17:48;101028.17;;;0.61;79.41
35848;BME280;22332;51.954;20.118;2023-01-28T16:20:55;101027.92;;;0.58;79.66
35848;BME280;22332;51.954;20.118;2023-01-28T16:24:03;101021.92;;;0.64;80.24
35848;BME280;22332;51.954;20.118;2023-01-28T16:27:20;101024.85;;;0.72;79.78
35848;BME280;22332;51.954;20.118;2023-01-28T16:30:27;101028.35;;;0.72;79.24
35848;BME280;22332;51.954;20.118;2023-01-28T16:33:33;101028.79;;;0.63;79.40
35848;BME280;22332;51.954;20.118;2023-01-28T16:36:38;101023.78;;;0.57;80.10
35848;BME280;22332;51.954;20.118;2023-01-28T16:39:44;101027.30;;;0.53;80.36
35848;BME280;22332;51.954;20.118;2023-01-28T16:42:50;101033.14;;;0.48;80.70
35848;BME280;22332;51.954;20.118;2023-01-28T16:45:57;101033.63;;;0.45;80.82
35848;BME280;22332;51.954;20.118;2023-01-28T16:49:03;101041.54;;;0.48;80.74
35848;BME280;22332;51.954;20.118;2023-01-28T16:52:10;101041.29;;;0.53;80.86
35848;BME280;22332;51.954;20.118;2023-01-28T16:55:18;101043.59;;;0.56;80.69